sensor_id;sensor_type;location;lat;lon;timestamp;P1;durP1;ratioP1;P2;durP2;ratioP2
47433;SDS011;33184;48.774;8.918;2022-10-16T00:03:06;1.23;;;0.50;;
47433;SDS011;33184;48.774;8.918;2022-10-16T00:08:28;1.15;;;0.35;;
47433;SDS011;33184;48.774;8.918;2022-10-16T00:13:50;2.53;;;0.90;;
47433;SDS011;33184;48.774;8.918;2022-10-16T00:19:12;0.30;;;0.28;;
47433;SDS011;33184;48.774;8.918;2022-10-16T00:24:32;2.80;;;0.40;;
47433;SDS011;33184;48.774;8.918;2022-10-16T00:29:53;0.70;;;0.30;;
47433;SDS011;33184;48.774;8.918;2022-10-16T00:35:14;1.55;;;0.40;;
47433;SDS011;33184;48.774;8.918;2022-10-16T00:40:34;2.35;;;0.40;;
47433;SDS011;33184;48.774;8.918;2022-10-16T00:45:55;2.50;;;0.30;;
47433;SDS011;33184;48.774;8.918;2022-10-16T00:51:17;4.10;;;0.60;;
47433;SDS011;33184;48.774;8.918;2022-10-16T00:56:40;2.55;;;0.60;;
47433;SDS011;33184;48.774;8.918;2022-10-16T01:02:02;2.25;;;0.50;;
47433;SDS011;33184;48.774;8.918;2022-10-16T01:13:04;2.13;;;0.60;;
47433;SDS011;33184;48.774;8.918;2022-10-16T01:24:11;1.88;;;0.47;;
47433;SDS011;33184;48.774;8.918;2022-10-16T01:35:22;7.47;;;1.00;;
47433;SDS011;33184;48.774;8.918;2022-10-16T01:40:50;1.40;;;0.52;;
47433;SDS011;33184;48.774;8.918;2022-10-16T01:46:12;1.92;;;0.50;;
47433;SDS011;33184;48.774;8.918;2022-10-16T01:51:34;3.50;;;0.63;;
47433;SDS011;33184;48.774;8.918;2022-10-16T01:56:57;1.65;;;0.50;;
47433;SDS011;33184;48.774;8.918;2022-10-16T02:02:18;0.98;;;0.50;;
47433;SDS011;33184;48.774;8.918;2022-10-16T02:07:41;2.75;;;0.60;;
47433;SDS011;33184;48.774;8.918;2022-10-16T02:13:11;2.50;;;2.38;;
47433;SDS011;33184;48.774;8.918;2022-10-16T02:18:36;4.57;;;4.03;;
47433;SDS011;33184;48.774;8.918;2022-10-16T02:29:28;1.98;;;0.47;;
47433;SDS011;33184;48.774;8.918;2022-10-16T02:34:49;0.95;;;0.55;;
47433;SDS011;33184;48.774;8.918;2022-10-16T02:40:11;1.20;;;0.43;;
47433;SDS011;33184;48.774;8.918;2022-10-16T02:45:32;0.50;;;0.50;;
47433;SDS011;33184;48.774;8.918;2022-10-16T02:50:53;0.55;;;0.35;;
47433;SDS011;33184;48.774;8.918;2022-10-16T02:56:14;8.10;;;0.80;;
47433;SDS011;33184;48.774;8.918;2022-10-16T03:01:34;1.42;;;0.40;;
47433;SDS011;33184;48.774;8.918;2022-10-16T03:06:55;0.85;;;0.50;;
47433;SDS011;33184;48.774;8.918;2022-10-16T03:12:15;5.10;;;0.93;;
47433;SDS011;33184;48.774;8.918;2022-10-16T03:17:36;1.20;;;0.52;;
47433;SDS011;33184;48.774;8.918;2022-10-16T03:22:56;1.55;;;0.55;;
47433;SDS011;33184;48.774;8.918;2022-10-16T03:28:17;0.30;;;0.30;;
47433;SDS011;33184;48.774;8.918;2022-10-16T03:33:37;0.98;;;0.43;;
47433;SDS011;33184;48.774;8.918;2022-10-16T03:38:58;2.17;;;0.40;;
47433;SDS011;33184;48.774;8.918;2022-10-16T03:44:18;2.80;;;0.47;;
47433;SDS011;33184;48.774;8.918;2022-10-16T03:49:39;0.40;;;0.35;;
47433;SDS011;33184;48.774;8.918;2022-10-16T03:55:00;1.08;;;0.40;;
47433;SDS011;33184;48.774;8.918;2022-10-16T04:00:20;2.92;;;0.70;;
47433;SDS011;33184;48.774;8.918;2022-10-16T04:05:41;1.33;;;0.45;;
47433;SDS011;33184;48.774;8.918;2022-10-16T04:11:02;2.10;;;0.45;;
47433;SDS011;33184;48.774;8.918;2022-10-16T04:16:23;5.03;;;0.40;;
47433;SDS011;33184;48.774;8.918;2022-10-16T04:21:44;0.50;;;0.40;;
47433;SDS011;33184;48.774;8.918;2022-10-16T04:27:04;3.00;;;0.52;;
47433;SDS011;33184;48.774;8.918;2022-10-16T04:32:25;2.78;;;0.50;;
47433;SDS011;33184;48.774;8.918;2022-10-16T04:37:46;1.92;;;0.55;;
47433;SDS011;33184;48.774;8.918;2022-10-16T04:43:07;0.93;;;0.47;;
47433;SDS011;33184;48.774;8.918;2022-10-16T04:48:27;1.45;;;0.30;;
47433;SDS011;33184;48.774;8.918;2022-10-16T04:53:48;2.55;;;0.50;;
47433;SDS011;33184;48.774;8.918;2022-10-16T04:59:09;1.70;;;0.60;;
47433;SDS011;33184;48.774;8.918;2022-10-16T05:04:29;3.13;;;0.55;;
47433;SDS011;33184;48.774;8.918;2022-10-16T05:09:50;6.32;;;1.27;;
47433;SDS011;33184;48.774;8.918;2022-10-16T05:15:10;1.08;;;0.50;;
47433;SDS011;33184;48.774;8.918;2022-10-16T05:20:31;3.22;;;0.47;;
47433;SDS011;33184;48.774;8.918;2022-10-16T05:25:56;0.40;;;0.40;;
47433;SDS011;33184;48.774;8.918;2022-10-16T05:31:18;3.60;;;0.50;;
47433;SDS011;33184;48.774;8.918;2022-10-16T05:36:39;4.15;;;0.70;;
47433;SDS011;33184;48.774;8.918;2022-10-16T05:41:59;1.80;;;0.50;;
47433;SDS011;33184;48.774;8.918;2022-10-16T05:47:20;1.25;;;0.60;;
47433;SDS011;33184;48.774;8.918;2022-10-16T05:52:41;2.92;;;0.60;;
47433;SDS011;33184;48.774;8.918;2022-10-16T05:58:01;1.08;;;0.65;;
47433;SDS011;33184;48.774;8.918;2022-10-16T06:03:22;0.75;;;0.50;;
47433;SDS011;33184;48.774;8.918;2022-10-16T06:08:44;1.75;;;0.50;;
47433;SDS011;33184;48.774;8.918;2022-10-16T06:14:05;2.05;;;0.50;;
47433;SDS011;33184;48.774;8.918;2022-10-16T06:19:29;2.20;;;0.70;;
47433;SDS011;33184;48.774;8.918;2022-10-16T06:24:49;2.10;;;0.60;;
47433;SDS011;33184;48.774;8.918;2022-10-16T06:30:10;3.83;;;0.60;;
47433;SDS011;33184;48.774;8.918;2022-10-16T06:35:30;2.20;;;0.73;;
47433;SDS011;33184;48.774;8.918;2022-10-16T06:40:53;0.93;;;0.68;;
47433;SDS011;33184;48.774;8.918;2022-10-16T06:46:15;2.08;;;0.75;;
47433;SDS011;33184;48.774;8.918;2022-10-16T06:51:37;2.03;;;0.60;;
47433;SDS011;33184;48.774;8.918;2022-10-16T06:57:01;2.40;;;1.00;;
47433;SDS011;33184;48.774;8.918;2022-10-16T07:02:21;1.15;;;0.68;;
47433;SDS011;33184;48.774;8.918;2022-10-16T07:07:42;1.00;;;0.60;;
47433;SDS011;33184;48.774;8.918;2022-10-16T07:13:03;1.48;;;0.70;;
47433;SDS011;33184;48.774;8.918;2022-10-16T07:18:23;5.10;;;0.90;;
47433;SDS011;33184;48.774;8.918;2022-10-16T07:23:53;1.85;;;0.77;;
47433;SDS011;33184;48.774;8.918;2022-10-16T07:29:16;3.53;;;0.60;;
47433;SDS011;33184;48.774;8.918;2022-10-16T07:34:38;1.10;;;0.50;;
47433;SDS011;33184;48.774;8.918;2022-10-16T07:39:59;2.78;;;0.75;;
47433;SDS011;33184;48.774;8.918;2022-10-16T07:45:20;2.35;;;0.80;;
47433;SDS011;33184;48.774;8.918;2022-10-16T07:50:40;2.13;;;0.82;;
47433;SDS011;33184;48.774;8.918;2022-10-16T07:56:02;4.32;;;0.70;;
47433;SDS011;33184;48.774;8.918;2022-10-16T08:01:25;0.82;;;0.50;;
47433;SDS011;33184;48.774;8.918;2022-10-16T08:06:46;2.78;;;0.68;;
47433;SDS011;33184;48.774;8.918;2022-10-16T08:12:07;2.33;;;0.70;;
47433;SDS011;33184;48.774;8.918;2022-10-16T08:17:27;0.98;;;0.43;;
47433;SDS011;33184;48.774;8.918;2022-10-16T08:22:48;0.77;;;0.50;;
47433;SDS011;33184;48.774;8.918;2022-10-16T08:28:10;2.45;;;0.60;;
47433;SDS011;33184;48.774;8.918;2022-10-16T08:33:31;1.55;;;0.75;;
47433;SDS011;33184;48.774;8.918;2022-10-16T08:38:51;0.43;;;0.40;;
47433;SDS011;33184;48.774;8.918;2022-10-16T08:50:11;2.05;;;0.50;;
47433;SDS011;33184;48.774;8.918;2022-10-16T08:55:39;4.00;;;0.60;;
47433;SDS011;33184;48.774;8.918;2022-10-16T09:01:04;0.50;;;0.40;;
47433;SDS011;33184;48.774;8.918;2022-10-16T09:12:26;0.75;;;0.50;;
47433;SDS011;33184;48.774;8.918;2022-10-16T09:23:58;1.90;;;0.75;;
47433;SDS011;33184;48.774;8.918;2022-10-16T09:29:25;1.25;;;0.70;;
47433;SDS011;33184;48.774;8.918;2022-10-16T09:34:47;1.00;;;0.50;;
47433;SDS011;33184;48.774;8.918;2022-10-16T09:40:23;4.28;;;0.95;;
47433;SDS011;33184;48.774;8.918;2022-10-16T09:51:24;0.68;;;0.45;;
47433;SDS011;33184;48.774;8.918;2022-10-16T09:56:52;1.42;;;0.77;;
47433;SDS011;33184;48.774;8.918;2022-10-16T10:02:14;2.35;;;0.60;;
47433;SDS011;33184;48.774;8.918;2022-10-16T10:07:38;4.63;;;0.60;;
47433;SDS011;33184;48.774;8.918;2022-10-16T10:13:02;1.23;;;0.50;;
47433;SDS011;33184;48.774;8.918;2022-10-16T10:18:23;3.33;;;0.57;;
47433;SDS011;33184;48.774;8.918;2022-10-16T10:23:44;2.08;;;0.38;;
47433;SDS011;33184;48.774;8.918;2022-10-16T10:29:17;0.80;;;0.52;;
47433;SDS011;33184;48.774;8.918;2022-10-16T10:40:42;1.70;;;0.40;;
47433;SDS011;33184;48.774;8.918;2022-10-16T10:46:32;2.08;;;0.40;;
47433;SDS011;33184;48.774;8.918;2022-10-16T10:52:12;4.70;;;0.30;;
47433;SDS011;33184;48.774;8.918;2022-10-16T11:09:32;1.63;;;0.35;;
47433;SDS011;33184;48.774;8.918;2022-10-16T11:20:32;2.25;;;0.77;;
47433;SDS011;33184;48.774;8.918;2022-10-16T11:25:59;0.85;;;0.38;;
47433;SDS011;33184;48.774;8.918;2022-10-16T11:31:28;1.75;;;0.50;;
47433;SDS011;33184;48.774;8.918;2022-10-16T11:48:15;1.23;;;0.40;;
47433;SDS011;33184;48.774;8.918;2022-10-16T11:53:51;0.38;;;0.35;;
47433;SDS011;33184;48.774;8.918;2022-10-16T12:11:20;1.40;;;0.43;;
47433;SDS011;33184;48.774;8.918;2022-10-16T12:16:56;1.67;;;0.40;;
47433;SDS011;33184;48.774;8.918;2022-10-16T12:22:19;1.85;;;0.60;;
47433;SDS011;33184;48.774;8.918;2022-10-16T12:27:40;3.95;;;0.82;;
47433;SDS011;33184;48.774;8.918;2022-10-16T12:38:47;2.83;;;0.50;;
47433;SDS011;33184;48.774;8.918;2022-10-16T12:44:21;2.50;;;0.40;;
47433;SDS011;33184;48.774;8.918;2022-10-16T12:49:48;0.30;;;0.30;;
47433;SDS011;33184;48.774;8.918;2022-10-16T12:55:17;2.95;;;0.52;;
47433;SDS011;33184;48.774;8.918;2022-10-16T13:00:58;4.75;;;0.50;;
47433;SDS011;33184;48.774;8.918;2022-10-16T13:12:25;2.60;;;0.30;;
47433;SDS011;33184;48.774;8.918;2022-10-16T13:30:01;2.38;;;0.55;;
47433;SDS011;33184;48.774;8.918;2022-10-16T13:35:49;1.95;;;0.60;;
47433;SDS011;33184;48.774;8.918;2022-10-16T13:41:17;1.23;;;0.55;;
47433;SDS011;33184;48.774;8.918;2022-10-16T13:46:38;1.33;;;0.50;;
47433;SDS011;33184;48.774;8.918;2022-10-16T13:51:59;0.90;;;0.50;;
47433;SDS011;33184;48.774;8.918;2022-10-16T13:57:22;0.50;;;0.43;;
47433;SDS011;33184;48.774;8.918;2022-10-16T14:08:04;3.38;;;0.95;;
47433;SDS011;33184;48.774;8.918;2022-10-16T14:13:29;1.75;;;0.45;;
47433;SDS011;33184;48.774;8.918;2022-10-16T14:19:04;4.53;;;1.58;;
47433;SDS011;33184;48.774;8.918;2022-10-16T14:24:34;4.13;;;0.60;;
47433;SDS011;33184;48.774;8.918;2022-10-16T14:30:09;4.22;;;0.60;;
47433;SDS011;33184;48.774;8.918;2022-10-16T14:35:41;1.08;;;0.55;;
47433;SDS011;33184;48.774;8.918;2022-10-16T14:41:01;4.75;;;0.60;;
47433;SDS011;33184;48.774;8.918;2022-10-16T14:46:34;2.30;;;0.52;;
47433;SDS011;33184;48.774;8.918;2022-10-16T14:51:57;0.45;;;0.40;;
47433;SDS011;33184;48.774;8.918;2022-10-16T14:57:18;1.70;;;0.45;;
47433;SDS011;33184;48.774;8.918;2022-10-16T15:02:40;1.70;;;0.77;;
47433;SDS011;33184;48.774;8.918;2022-10-16T15:08:02;3.58;;;0.50;;
47433;SDS011;33184;48.774;8.918;2022-10-16T15:13:24;4.75;;;0.57;;
47433;SDS011;33184;48.774;8.918;2022-10-16T15:18:45;1.17;;;0.50;;
47433;SDS011;33184;48.774;8.918;2022-10-16T15:24:07;0.63;;;0.50;;
47433;SDS011;33184;48.774;8.918;2022-10-16T15:29:31;1.35;;;0.60;;
47433;SDS011;33184;48.774;8.918;2022-10-16T15:34:52;2.45;;;0.90;;
47433;SDS011;33184;48.774;8.918;2022-10-16T15:40:12;4.00;;;0.60;;
47433;SDS011;33184;48.774;8.918;2022-10-16T15:45:33;1.58;;;0.55;;
47433;SDS011;33184;48.774;8.918;2022-10-16T15:50:54;8.23;;;0.82;;
47433;SDS011;33184;48.774;8.918;2022-10-16T15:56:14;1.92;;;0.55;;
47433;SDS011;33184;48.774;8.918;2022-10-16T16:01:36;0.73;;;0.63;;
47433;SDS011;33184;48.774;8.918;2022-10-16T16:06:57;2.45;;;0.77;;
47433;SDS011;33184;48.774;8.918;2022-10-16T16:12:17;1.40;;;0.60;;
47433;SDS011;33184;48.774;8.918;2022-10-16T16:17:38;2.92;;;0.63;;
47433;SDS011;33184;48.774;8.918;2022-10-16T16:22:58;7.85;;;4.75;;
47433;SDS011;33184;48.774;8.918;2022-10-16T16:28:19;7.43;;;2.58;;
47433;SDS011;33184;48.774;8.918;2022-10-16T16:33:40;5.20;;;2.75;;
47433;SDS011;33184;48.774;8.918;2022-10-16T16:39:00;6.30;;;1.58;;
47433;SDS011;33184;48.774;8.918;2022-10-16T16:44:21;4.72;;;1.65;;
47433;SDS011;33184;48.774;8.918;2022-10-16T16:49:42;6.85;;;1.30;;
47433;SDS011;33184;48.774;8.918;2022-10-16T16:55:02;3.08;;;1.20;;
47433;SDS011;33184;48.774;8.918;2022-10-16T17:00:23;3.50;;;1.55;;
47433;SDS011;33184;48.774;8.918;2022-10-16T17:05:53;2.00;;;1.40;;
47433;SDS011;33184;48.774;8.918;2022-10-16T17:11:20;5.88;;;1.73;;
47433;SDS011;33184;48.774;8.918;2022-10-16T17:16:42;6.28;;;2.53;;
47433;SDS011;33184;48.774;8.918;2022-10-16T17:22:07;3.15;;;1.15;;
47433;SDS011;33184;48.774;8.918;2022-10-16T17:27:28;4.00;;;1.00;;
47433;SDS011;33184;48.774;8.918;2022-10-16T17:32:48;3.35;;;0.98;;
47433;SDS011;33184;48.774;8.918;2022-10-16T17:38:09;7.35;;;3.05;;
47433;SDS011;33184;48.774;8.918;2022-10-16T17:43:31;8.15;;;1.77;;
47433;SDS011;33184;48.774;8.918;2022-10-16T17:48:52;8.13;;;1.83;;
47433;SDS011;33184;48.774;8.918;2022-10-16T17:54:14;6.55;;;2.17;;
47433;SDS011;33184;48.774;8.918;2022-10-16T17:59:35;4.10;;;2.58;;
47433;SDS011;33184;48.774;8.918;2022-10-16T18:04:56;3.05;;;2.40;;
47433;SDS011;33184;48.774;8.918;2022-10-16T18:10:16;5.90;;;1.83;;
47433;SDS011;33184;48.774;8.918;2022-10-16T18:15:37;6.65;;;2.20;;
47433;SDS011;33184;48.774;8.918;2022-10-16T18:21:02;4.93;;;2.85;;
47433;SDS011;33184;48.774;8.918;2022-10-16T18:26:25;6.03;;;3.35;;
47433;SDS011;33184;48.774;8.918;2022-10-16T18:31:46;10.50;;;2.78;;
47433;SDS011;33184;48.774;8.918;2022-10-16T18:37:07;7.95;;;2.80;;
47433;SDS011;33184;48.774;8.918;2022-10-16T18:42:28;7.88;;;3.28;;
47433;SDS011;33184;48.774;8.918;2022-10-16T18:47:48;8.52;;;3.40;;
47433;SDS011;33184;48.774;8.918;2022-10-16T18:53:09;11.98;;;3.50;;
47433;SDS011;33184;48.774;8.918;2022-10-16T18:58:29;10.23;;;3.80;;
47433;SDS011;33184;48.774;8.918;2022-10-16T19:03:54;6.85;;;2.80;;
47433;SDS011;33184;48.774;8.918;2022-10-16T19:09:20;6.95;;;2.88;;
47433;SDS011;33184;48.774;8.918;2022-10-16T19:14:42;9.20;;;3.60;;
47433;SDS011;33184;48.774;8.918;2022-10-16T19:20:04;5.25;;;2.47;;
47433;SDS011;33184;48.774;8.918;2022-10-16T19:25:25;6.32;;;2.25;;
47433;SDS011;33184;48.774;8.918;2022-10-16T19:30:47;11.07;;;3.20;;
47433;SDS011;33184;48.774;8.918;2022-10-16T19:41:58;9.68;;;3.85;;
47433;SDS011;33184;48.774;8.918;2022-10-16T19:47:21;8.88;;;2.28;;
47433;SDS011;33184;48.774;8.918;2022-10-16T19:52:41;7.22;;;2.53;;
47433;SDS011;33184;48.774;8.918;2022-10-16T19:58:02;4.40;;;2.17;;
47433;SDS011;33184;48.774;8.918;2022-10-16T20:03:22;5.32;;;1.77;;
47433;SDS011;33184;48.774;8.918;2022-10-16T20:08:44;3.22;;;1.38;;
47433;SDS011;33184;48.774;8.918;2022-10-16T20:14:07;3.77;;;1.40;;
47433;SDS011;33184;48.774;8.918;2022-10-16T20:19:28;4.97;;;1.35;;
47433;SDS011;33184;48.774;8.918;2022-10-16T20:24:48;6.00;;;1.40;;
47433;SDS011;33184;48.774;8.918;2022-10-16T20:30:09;6.40;;;2.55;;
47433;SDS011;33184;48.774;8.918;2022-10-16T20:35:34;2.85;;;1.60;;
47433;SDS011;33184;48.774;8.918;2022-10-16T20:41:01;3.33;;;1.83;;
47433;SDS011;33184;48.774;8.918;2022-10-16T20:46:24;7.47;;;1.80;;
47433;SDS011;33184;48.774;8.918;2022-10-16T20:51:46;4.53;;;1.27;;
47433;SDS011;33184;48.774;8.918;2022-10-16T20:57:09;6.05;;;1.70;;
47433;SDS011;33184;48.774;8.918;2022-10-16T21:02:29;2.25;;;1.60;;
47433;SDS011;33184;48.774;8.918;2022-10-16T21:07:50;3.95;;;1.52;;
47433;SDS011;33184;48.774;8.918;2022-10-16T21:13:10;2.95;;;1.40;;
47433;SDS011;33184;48.774;8.918;2022-10-16T21:18:31;3.35;;;1.60;;
47433;SDS011;33184;48.774;8.918;2022-10-16T21:23:52;3.17;;;1.98;;
47433;SDS011;33184;48.774;8.918;2022-10-16T21:29:15;5.43;;;1.63;;
47433;SDS011;33184;48.774;8.918;2022-10-16T21:34:35;5.07;;;1.80;;
47433;SDS011;33184;48.774;8.918;2022-10-16T21:39:56;4.82;;;1.30;;
47433;SDS011;33184;48.774;8.918;2022-10-16T21:45:16;2.10;;;1.40;;
47433;SDS011;33184;48.774;8.918;2022-10-16T21:50:37;2.55;;;1.33;;
47433;SDS011;33184;48.774;8.918;2022-10-16T21:55:57;5.78;;;1.42;;
47433;SDS011;33184;48.774;8.918;2022-10-16T22:01:19;3.03;;;1.52;;
47433;SDS011;33184;48.774;8.918;2022-10-16T22:06:41;5.45;;;1.23;;
47433;SDS011;33184;48.774;8.918;2022-10-16T22:12:02;4.40;;;2.10;;
47433;SDS011;33184;48.774;8.918;2022-10-16T22:17:22;4.70;;;1.40;;
47433;SDS011;33184;48.774;8.918;2022-10-16T22:22:43;3.47;;;2.00;;
47433;SDS011;33184;48.774;8.918;2022-10-16T22:28:03;4.82;;;1.55;;
47433;SDS011;33184;48.774;8.918;2022-10-16T22:33:24;3.50;;;1.50;;
47433;SDS011;33184;48.774;8.918;2022-10-16T22:38:45;1.73;;;1.23;;
47433;SDS011;33184;48.774;8.918;2022-10-16T22:44:09;2.13;;;1.42;;
47433;SDS011;33184;48.774;8.918;2022-10-16T22:49:31;4.93;;;1.48;;
47433;SDS011;33184;48.774;8.918;2022-10-16T22:54:53;2.85;;;1.60;;
47433;SDS011;33184;48.774;8.918;2022-10-16T23:00:15;5.80;;;1.55;;
47433;SDS011;33184;48.774;8.918;2022-10-16T23:05:38;7.43;;;1.50;;
47433;SDS011;33184;48.774;8.918;2022-10-16T23:11:06;2.22;;;1.60;;
47433;SDS011;33184;48.774;8.918;2022-10-16T23:16:27;3.30;;;1.45;;
47433;SDS011;33184;48.774;8.918;2022-10-16T23:21:48;8.25;;;4.78;;
47433;SDS011;33184;48.774;8.918;2022-10-16T23:27:08;4.75;;;2.83;;
47433;SDS011;33184;48.774;8.918;2022-10-16T23:32:29;7.60;;;2.83;;
47433;SDS011;33184;48.774;8.918;2022-10-16T23:37:49;5.22;;;1.88;;
47433;SDS011;33184;48.774;8.918;2022-10-16T23:43:10;5.90;;;2.90;;
47433;SDS011;33184;48.774;8.918;2022-10-16T23:48:31;4.43;;;1.60;;
47433;SDS011;33184;48.774;8.918;2022-10-16T23:53:51;8.38;;;1.77;;
47433;SDS011;33184;48.774;8.918;2022-10-16T23:59:12;4.57;;;1.35;;
